logo
Search for airport 
image banner adimage banner adimage banner ad
image banner ad

OPGD - Gwadar Int'l

Located in Gwadar, Pakistan

ICAO - OPGD, IATA - GWD

Data provided by Airmate  

General information

Coordinates: N25°13'56" E62°19'39"
Elevation is 32 feet MSL.
 
View others Airports in Balochistan

Operational data

Special qualification required
Current time UTC:
Current local time:
Weather
TAF: TAF OPGD 130500Z 1306/1406 18010KT 5000 HZ SCT025 BKN090 TEMPO 1311/1315 03010G20KT 2000 -TSRA FEW020CB SCT025 BKN060 OVC090 BECMG 1316/1318 23008KT 4000 DZ SCT025 BKN090 TEMPO 1302/1306 03015G25KT 2000 DS/TSRA FEW020CB SCT025 BKN060 OVC090
View NOTAMs / SUP AIP / TFR affecting this airport [VIEW]
Communications frequencies: [VIEW]

Runways:

RWY identifierQFULength (ft)Width (ft)SurfaceLDA (ft)
0663°650375ASP
24243°650375ASP

Airport contact information

Address: Gwadar Pakistan

Satellite view of OPGD